ADDS METAR Data INFO
IDs: Format: Raw Decoded Include TAF

Data at: 0110 UTC 21 Oct 2017

KAKQ 210054Z AUTO 00000KT 10SM CLR 14/14 A3022 RMK AO2 SLP233 T01440139
KAKQ 202354Z AUTO 00000KT 10SM CLR 15/14 A3021 RMK AO2 SLP230 T01500144 10261 20150 53010
KAKQ 202254Z AUTO 00000KT 10SM CLR 17/16 A3019 RMK AO2 SLP225 T01720156
KAKQ 202154Z AUTO 00000KT 10SM CLR 21/16 A3018 RMK AO2 SLP222 T02110156
KAKQ 202054Z AUTO VRB03KT 10SM CLR 26/12 A3018 RMK AO2 SLP220 T02560117 56009
KAKQ 201954Z AUTO 00000KT 10SM CLR 26/12 A3019 RMK AO2 SLP222 T02610117
KAKQ 201854Z AUTO VRB03KT 10SM CLR 26/11 A3019 RMK AO2 SLP224 T02560111
KAKQ 201754Z AUTO 02003KT 10SM CLR 25/11 A3021 RMK AO2 SLP229 T02500106 10250 20083 58018
KAKQ 201654Z AUTO 01004KT 10SM CLR 24/12 A3023 RMK AO2 SLP238 T02440122
KAKQ 201554Z AUTO VRB04KT 10SM CLR 23/12 A3025 RMK AO2 SLP245 T02330117
KAKQ 201454Z AUTO VRB03KT 10SM CLR 21/12 A3026 RMK AO2 SLP247 T02110117 51009
KAKQ 201354Z AUTO 00000KT 10SM CLR 17/12 A3026 RMK AO2 SLP246 T01720122
KAKQ 201254Z AUTO 00000KT 10SM CLR 13/10 A3025 RMK AO2 SLP243 T01280100
KAKQ 201154Z AUTO 00000KT 9SM CLR 08/07 A3023 RMK AO2 SLP238 T00830072 10094 20072 53015
KAKQ 201054Z AUTO 00000KT 8SM CLR 07/07 A3021 RMK AO2 SLP231 T00720067
KAKQ 200954Z AUTO 00000KT 6SM BR CLR 08/07 A3020 RMK AO2 SLP226 T00780072
KAKQ 200854Z AUTO 00000KT 9SM CLR 08/08 A3018 RMK AO2 SLP222 T00830078 55001
KAKQ 200754Z AUTO 00000KT 10SM CLR 09/08 A3018 RMK AO2 SLP219 T00890083
KAKQ 200654Z AUTO 00000KT 9SM CLR 09/08 A3018 RMK AO2 SLP221 T00890083
KAKQ 200554Z AUTO 00000KT 7SM CLR 09/09 A3019 RMK AO2 SLP223 T00940089 10139 20089 56002
KAKQ 200454Z AUTO 00000KT 9SM CLR 10/09 A3019 RMK AO2 SLP223 T01000094 402390050
KAKQ 200354Z AUTO 00000KT 10SM CLR 11/09 A3019 RMK AO2 SLP224 T01060094
KAKQ 200254Z AUTO 00000KT 10SM CLR 11/10 A3019 RMK AO2 SLP225 T01110100 51002
KAKQ 200154Z AUTO 00000KT 10SM CLR 12/12 A3019 RMK AO2 SLP225 T01220117
KAKQ 200054Z AUTO 00000KT 10SM CLR 13/12 A3019 RMK AO2 SLP224 T01280122
KAKQ 192354Z AUTO 00000KT 10SM CLR 14/13 A3019 RMK AO2 SLP224 T01390128 10239 20139 53001
KAKQ 192254Z AUTO 00000KT 10SM CLR 16/14 A3018 RMK AO2 SLP221 T01560144
KAKQ 192154Z AUTO 00000KT 10SM CLR 21/14 A3018 RMK AO2 SLP219 T02060144
KAKQ 192054Z AUTO 27005KT 10SM CLR 23/12 A3018 RMK AO2 SLP221 T02330117 56018
KAKQ 191954Z AUTO 22004KT 10SM CLR 23/12 A3020 RMK AO2 SLP226 T02330117
KAKQ 191854Z AUTO VRB05KT 10SM CLR 23/12 A3021 RMK AO2 SLP230 T02280122
KAKQ 191754Z AUTO 21007KT 9SM CLR 22/13 A3024 RMK AO2 SLP239 T02220128 10228 20061 58026
KAKQ 191654Z AUTO 10SM CLR 22/12 A3026 RMK AO2 SLP248 T02170122
KAKQ 191554Z AUTO 31003KT 10SM CLR 20/11 A3030 RMK AO2 SLP259 T02000111
KAKQ 191454Z AUTO 00000KT 10SM CLR 18/13 A3031 RMK AO2 SLP265 T01830128 51005
KAKQ 191354Z AUTO 00000KT 10SM CLR 16/13 A3031 RMK AO2 SLP264 T01560128